Terminal Aerodrome Forecast
Issued by NWS

Home | Current Version | Previous Version | Text Only | Print | Product List | Glossary On
Versions: 1 2 3 4 5 6 7 8 9 10 11 12 13 14 15 16 17 18 19 20 21
000
FTUS45 KFGZ 051143
TAFGCN
TAF
KGCN 051143Z 0512/0612 VRB02KT P6SM OVC004
     FM051300 VRB04KT P6SM OVC010
     FM051600 VRB04KT P6SM FEW010 BKN020
     FM051800 26010G15KT P6SM -SHRA BKN025 BKN030
      TEMPO 0519/0523 4SM -TSRA OVC015CB
     FM060300 VRB04KT P6SM SCT030 BKN060=

USA.gov is the U.S. government's official web portal to all federal, state and local government web resources and services.